Time;durP1;ratioP1;P1;durP2;ratioP2;P2;SDS_P1;SDS_P2;PMS_P1;PMS_P2;Temp;Humidity;BMP_temperature;BMP_pressure;BME280_temperature;BME280_humidity;BME280_pressure;Samples;Min_cycle;Max_cycle;Signal;HPM_P1;HPM_P2
2023/10/07 00:01:37;;;;;;;15.40;14.80;;;;;;;-141.02;100.00;41196.88;5071620;28;20198;-63
2023/10/07 00:04:05;;;;;;;15.20;14.60;;;;;;;-141.02;100.00;41212.22;5071605;28;20226;-65
2023/10/07 00:06:34;;;;;;;14.63;14.13;;;;;;;-141.02;100.00;41204.53;5071446;28;20195;-62
2023/10/07 00:09:01;;;;;;;33.88;32.17;;;;;;;-141.02;100.00;41187.28;5071564;28;20214;-64
2023/10/07 00:11:31;;;;;;;32.17;30.67;;;;;;;-141.02;100.00;41173.84;5071681;28;20258;-63
2023/10/07 00:14:00;;;;;;;38.63;36.63;;;;;;;-141.02;100.00;41181.53;5071603;28;20194;-62
2023/10/07 00:16:28;;;;;;;37.75;35.85;;;;;;;-141.02;100.00;41204.53;5071962;28;20198;-60
2023/10/07 00:18:57;;;;;;;24.35;23.30;;;;;;;-141.02;100.00;41198.78;5071489;28;20205;-61
2023/10/07 00:21:27;;;;;;;15.23;14.63;;;;;;;-141.02;100.00;41235.25;5071434;28;20201;-64
2023/10/07 00:23:57;;;;;;;15.40;14.80;;;;;;;-141.02;100.00;41246.75;5075053;28;20194;-63
2023/10/07 00:26:30;;;;;;;15.10;14.50;;;;;;;-141.02;100.00;41262.09;5074973;28;20670;-63
2023/10/07 00:29:00;;;;;;;14.32;13.82;;;;;;;-141.02;100.00;41216.06;5074944;28;20197;-66
2023/10/07 00:31:32;;;;;;;32.63;31.13;;;;;;;-141.02;100.00;41200.72;5074871;28;20287;-62
2023/10/07 00:34:04;;;;;;;35.40;33.70;;;;;;;-141.02;100.00;41143.16;5074900;28;20716;-61
2023/10/07 00:36:42;;;;;;;35.22;33.53;;;;;;;-141.02;100.00;41085.59;5074880;28;20665;-60
2023/10/07 00:39:19;;;;;;;34.70;33.10;;;;;;;-141.02;100.00;41068.31;5074520;28;20229;-61
2023/10/07 00:41:50;;;;;;;13.18;12.77;;;;;;;-141.02;100.00;41001.16;5074673;28;20611;-61
2023/10/07 00:44:22;;;;;;;13.30;12.90;;;;;;;-141.02;100.00;40993.47;5074693;28;20191;-61
2023/10/07 00:47:01;;;;;;;12.95;12.55;;;;;;;-141.02;100.00;40909.06;5074973;28;20191;-64
2023/10/07 00:49:41;;;;;;;12.60;12.20;;;;;;;-141.02;100.00;40809.28;5074573;28;20197;-62
2023/10/07 00:52:55;;;;;;;20.15;19.45;;;;;;;-141.02;100.00;40682.66;5074778;28;20221;-65
2023/10/07 00:55:29;;;;;;;28.20;27.00;;;;;;;-141.02;100.00;40529.19;5073187;28;20210;-64
2023/10/07 01:01:57;;;;;;;24.47;23.50;;;;;;;-141.02;100.00;40295.16;5072451;28;20197;-61
2023/10/07 01:04:25;;;;;;;11.30;11.00;;;;;;;-141.02;100.00;40283.63;5072468;28;20198;-64
2023/10/07 01:07:02;;;;;;;11.25;10.95;;;;;;;-141.02;100.00;40281.72;5072339;28;20195;-62
2023/10/07 01:09:31;;;;;;;12.20;11.80;;;;;;;-141.02;100.00;40233.75;5072103;28;20222;-65
2023/10/07 01:12:51;;;;;;;22.05;21.17;;;;;;;-141.02;100.00;40195.41;5072037;28;20234;-62
2023/10/07 01:18:41;;;;;;;23.25;22.35;;;;;;;-141.02;100.00;40109.09;5074423;28;20185;-65
2023/10/07 01:21:11;;;;;;;26.93;25.83;;;;;;;-141.02;100.00;40101.41;5074077;28;20195;-65
2023/10/07 01:23:44;;;;;;;30.50;29.20;;;;;;;-141.02;100.00;40053.44;5073905;28;20277;-66
2023/10/07 01:26:20;;;;;;;11.67;11.27;;;;;;;-141.02;100.00;40038.09;5074146;28;20194;-65
2023/10/07 01:28:49;;;;;;;11.87;11.47;;;;;;;-141.02;100.00;40034.28;5073875;28;20182;-66
2023/10/07 01:31:18;;;;;;;11.63;11.23;;;;;;;-141.02;100.00;40007.41;5073815;28;20776;-62
2023/10/07 01:33:47;;;;;;;10.97;10.67;;;;;;;-141.02;100.00;39807.94;5072787;28;20194;-61
2023/10/07 01:36:18;;;;;;;10.30;10.00;;;;;;;-141.02;100.00;39591.22;5074064;28;20264;-65
2023/10/07 01:38:51;;;;;;;10.07;9.77;;;;;;;-141.02;100.00;39405.19;5073533;28;20201;-65
2023/10/07 01:41:19;;;;;;;9.90;9.60;;;;;;;-141.02;100.00;39234.50;5073639;28;20272;-65
2023/10/07 01:43:56;;;;;;;9.60;9.30;;;;;;;-141.02;100.00;39086.84;5074128;28;20198;-63
2023/10/07 01:46:31;;;;;;;9.70;9.40;;;;;;;-141.02;100.00;38967.94;5073952;28;20221;-65
2023/10/07 01:49:01;;;;;;;9.60;9.30;;;;;;;-141.02;100.00;38858.66;5073780;28;20190;-58
2023/10/07 01:51:30;;;;;;;9.80;9.50;;;;;;;-141.02;100.00;38839.47;5073815;28;20310;-64
2023/10/07 01:54:03;;;;;;;9.90;9.60;;;;;;;-141.02;100.00;38906.59;5073684;28;20198;-62
2023/10/07 01:56:32;;;;;;;9.73;9.43;;;;;;;-141.02;100.00;38902.75;5073391;28;20187;-63
2023/10/07 01:59:04;;;;;;;9.57;9.27;;;;;;;-141.02;100.00;38895.09;5073577;28;20561;-62
2023/10/07 02:02:17;;;;;;;9.43;9.13;;;;;;;-141.02;100.00;38933.44;5073232;28;20196;-61
2023/10/07 02:04:44;;;;;;;10.30;10.00;;;;;;;-141.02;100.00;39010.13;5073909;28;20204;-60
2023/10/07 02:07:13;;;;;;;10.60;10.30;;;;;;;-141.02;100.00;39033.16;5073388;28;20202;-63
2023/10/07 02:09:42;;;;;;;10.50;10.20;;;;;;;-141.02;100.00;39012.06;5073316;28;20201;-63
2023/10/07 02:12:11;;;;;;;10.40;10.10;;;;;;;-141.02;100.00;38990.97;5073498;28;20230;-60
2023/10/07 02:14:39;;;;;;;10.30;10.00;;;;;;;-141.02;100.00;38966.03;5073195;28;20194;-61
2023/10/07 02:17:11;;;;;;;10.00;9.70;;;;;;;-141.02;100.00;38854.81;5072830;28;20209;-58
2023/10/07 02:19:40;;;;;;;9.70;9.40;;;;;;;-141.02;100.00;38791.53;5072849;28;20243;-60
2023/10/07 02:22:13;;;;;;;9.20;8.90;;;;;;;-141.02;100.00;38684.16;5073026;28;20323;-64
2023/10/07 02:24:42;;;;;;;8.70;8.50;;;;;;;-141.02;100.00;38594.06;5072747;28;20183;-63
2023/10/07 02:27:17;;;;;;;8.60;8.40;;;;;;;-141.02;100.00;38484.75;5072759;28;20190;-60
2023/10/07 02:29:44;;;;;;;8.60;8.40;;;;;;;-141.02;100.00;38584.47;5072913;28;20186;-61
2023/10/07 02:32:14;;;;;;;8.70;8.50;;;;;;;-141.02;100.00;38588.28;5072997;28;20327;-59
2023/10/07 02:34:52;;;;;;;9.30;9.00;;;;;;;-141.02;100.00;38672.66;5073121;28;20252;-59
2023/10/07 02:37:21;;;;;;;9.03;8.83;;;;;;;-141.02;100.00;38726.34;5072565;28;20186;-65
2023/10/07 02:39:54;;;;;;;9.47;9.17;;;;;;;-141.02;100.00;38726.34;5071668;28;20238;-61
2023/10/07 02:42:28;;;;;;;9.53;9.23;;;;;;;-141.02;100.00;38703.34;5072482;28;20592;-62
2023/10/07 02:45:11;;;;;;;9.80;9.50;;;;;;;-141.02;100.00;38707.19;5072437;28;20186;-65
2023/10/07 02:47:39;;;;;;;9.73;9.43;;;;;;;-141.02;100.00;38676.50;5072753;28;20191;-61
2023/10/07 02:50:09;;;;;;;9.60;9.30;;;;;;;-141.02;100.00;38691.84;5072570;28;20198;-62
2023/10/07 02:52:39;;;;;;;10.10;9.80;;;;;;;-141.02;100.00;38737.84;5072168;28;20287;-64
2023/10/07 02:55:37;;;;;;;10.07;9.77;;;;;;;-141.02;100.00;38726.34;5072714;28;20233;-64
2023/10/07 02:58:09;;;;;;;10.00;9.70;;;;;;;-141.02;100.00;38745.53;5072156;28;20195;-64
2023/10/07 03:00:39;;;;;;;9.77;9.47;;;;;;;-141.02;100.00;38720.59;5072199;28;20190;-62
2023/10/07 03:03:32;;;;;;;9.70;9.40;;;;;;;-141.02;100.00;38726.34;5072140;28;20204;-60
2023/10/07 03:06:00;;;;;;;10.27;9.97;;;;;;;-141.02;100.00;38787.72;5072162;28;20191;-62
2023/10/07 03:11:12;;;;;;;10.00;9.70;;;;;;;-141.02;100.00;38783.88;5070309;28;20344;-62
2023/10/07 03:13:45;;;;;;;9.90;9.60;;;;;;;-141.02;100.00;38749.34;5072351;28;20190;-60
2023/10/07 03:16:42;;;;;;;9.83;9.53;;;;;;;-141.02;100.00;38745.53;5072406;28;20190;-61
2023/10/07 03:19:20;;;;;;;9.40;9.10;;;;;;;-141.02;100.00;38676.50;5072310;28;20194;-59
2023/10/07 03:22:09;;;;;;;9.20;8.90;;;;;;;-141.02;100.00;38628.56;5072237;28;20225;-62
2023/10/07 03:24:42;;;;;;;8.70;8.50;;;;;;;-141.02;100.00;38572.97;5072261;28;20190;-63
2023/10/07 03:27:22;;;;;;;8.37;8.17;;;;;;;-141.02;100.00;38519.28;5072373;28;20273;-59
2023/10/07 03:30:13;;;;;;;8.80;8.60;;;;;;;-141.02;100.00;38492.44;5072204;28;20186;-62
2023/10/07 03:32:56;;;;;;;8.50;8.30;;;;;;;-141.02;100.00;38513.53;5071838;28;20305;-58
2023/10/07 03:35:59;;;;;;;8.77;8.57;;;;;;;-141.02;100.00;38548.03;5072215;28;20660;-61
2023/10/07 03:38:26;;;;;;;8.90;8.70;;;;;;;-141.02;100.00;38578.72;5071728;28;20198;-62
2023/10/07 03:40:55;;;;;;;9.13;8.87;;;;;;;-141.02;100.00;38584.47;5071291;28;20722;-59
2023/10/07 03:43:26;;;;;;;8.67;8.47;;;;;;;-141.02;100.00;38553.78;5072064;28;20201;-62
2023/10/07 03:45:55;;;;;;;8.80;8.60;;;;;;;-141.02;100.00;38530.78;5072073;28;20186;-60
2023/10/07 03:48:24;;;;;;;8.60;8.40;;;;;;;-141.02;100.00;38538.44;5072047;28;20194;-61
2023/10/07 03:50:59;;;;;;;8.20;8.00;;;;;;;-141.02;100.00;38461.75;5072031;28;20226;-60
2023/10/07 03:53:31;;;;;;;7.90;7.70;;;;;;;-141.02;100.00;38469.44;5071893;28;20670;-59
2023/10/07 03:56:06;;;;;;;7.87;7.67;;;;;;;-141.02;100.00;38404.25;5072016;28;20187;-63
2023/10/07 03:58:36;;;;;;;8.00;7.80;;;;;;;-141.02;100.00;38411.91;5075111;28;20185;-64
2023/10/07 04:01:11;;;;;;;8.20;8.00;;;;;;;-141.02;100.00;38346.72;5076091;28;20242;-63
2023/10/07 04:03:40;;;;;;;7.80;7.60;;;;;;;-141.02;100.00;38283.47;5075770;28;20579;-58
2023/10/07 04:06:09;;;;;;;7.70;7.50;;;;;;;-141.02;100.00;38224.03;5075704;28;20571;-62
2023/10/07 04:08:39;;;;;;;7.63;7.43;;;;;;;-141.02;100.00;38206.78;5075325;28;20552;-63
2023/10/07 04:11:16;;;;;;;7.30;7.10;;;;;;;-141.02;100.00;38120.50;5075310;28;20683;-65
2023/10/07 04:13:53;;;;;;;7.40;7.20;;;;;;;-141.02;100.00;38082.16;5075296;28;20636;-64
2023/10/07 04:16:24;;;;;;;7.43;7.23;;;;;;;-141.02;100.00;38059.16;5075235;28;20624;-61
2023/10/07 04:18:51;;;;;;;7.23;7.03;;;;;;;-141.02;100.00;38022.72;5075560;28;20191;-64
2023/10/07 04:21:18;;;;;;;6.90;6.70;;;;;;;-141.02;100.00;38047.66;5075367;28;20195;-61
2023/10/07 04:23:45;;;;;;;6.90;6.70;;;;;;;-141.02;100.00;38068.75;5075029;28;20232;-65
2023/10/07 04:26:19;;;;;;;6.90;6.70;;;;;;;-141.02;100.00;38109.00;5075289;28;20202;-64
2023/10/07 04:28:48;;;;;;;6.60;6.40;;;;;;;-141.02;100.00;38189.53;5075023;28;20722;-62
2023/10/07 04:31:17;;;;;;;6.00;5.90;;;;;;;-141.02;100.00;38239.38;5075150;28;20210;-64
2023/10/07 04:33:48;;;;;;;16.57;16.07;;;;;;;-141.02;100.00;38342.88;5075364;28;20616;-64
2023/10/07 04:36:31;;;;;;;18.83;18.23;;;;;;;-141.02;100.00;38400.41;5074922;28;20697;-63
2023/10/07 04:38:59;;;;;;;16.83;16.33;;;;;;;-141.02;100.00;38452.16;5074266;28;20190;-64
2023/10/07 04:41:31;;;;;;;16.10;15.60;;;;;;;-141.02;100.00;38492.44;5075074;28;20190;-62
2023/10/07 04:46:45;;;;;;;11.67;11.37;;;;;;;-141.02;100.00;38607.47;5074818;28;20186;-63
2023/10/07 04:49:13;;;;;;;5.30;5.20;;;;;;;-141.02;100.00;38680.34;5074602;28;20226;-65
2023/10/07 04:51:55;;;;;;;5.10;5.00;;;;;;;-141.02;100.00;38676.50;5074466;28;20272;-64
2023/10/07 04:54:22;;;;;;;4.73;4.63;;;;;;;-141.02;100.00;38672.66;5074828;28;20186;-62
2023/10/07 04:56:53;;;;;;;4.87;4.77;;;;;;;-141.02;100.00;38734.03;5074448;28;20194;-63
2023/10/07 04:59:24;;;;;;;5.17;5.07;;;;;;;-141.02;100.00;38745.53;5074439;28;20628;-64
2023/10/07 05:01:56;;;;;;;5.17;5.07;;;;;;;-141.02;100.00;38768.53;5075330;28;20194;-64
2023/10/07 05:04:24;;;;;;;4.70;4.60;;;;;;;-141.02;100.00;38339.06;5074638;28;20248;-64
2023/10/07 05:06:53;;;;;;;5.10;5.00;;;;;;;-141.02;100.00;38933.44;5074226;28;20228;-63
2023/10/07 05:09:21;;;;;;;4.90;4.80;;;;;;;-141.02;100.00;39017.81;5074143;28;20205;-61
2023/10/07 05:11:49;;;;;;;5.40;5.30;;;;;;;-141.02;100.00;38971.78;5074111;28;20258;-64
2023/10/07 05:14:17;;;;;;;5.10;5.00;;;;;;;-141.02;100.00;38845.22;5074151;28;20668;-65
2023/10/07 05:16:48;;;;;;;7.87;7.67;;;;;;;-141.02;100.00;38856.72;5074335;28;20252;-62
2023/10/07 05:19:19;;;;;;;10.50;10.20;;;;;;;-141.02;100.00;38906.59;5074419;28;20182;-63
2023/10/07 05:21:59;;;;;;;7.60;7.40;;;;;;;-141.02;100.00;39000.53;5074304;28;20281;-64
2023/10/07 05:24:29;;;;;;;11.30;11.00;;;;;;;-141.02;100.00;38960.28;5074286;28;20198;-64
2023/10/07 05:26:59;;;;;;;8.40;8.20;;;;;;;-141.02;100.00;38966.03;5074013;28;20194;-63
2023/10/07 05:29:27;;;;;;;7.60;7.40;;;;;;;-141.02;100.00;38935.34;5074267;28;20190;-63
2023/10/07 05:31:57;;;;;;;7.60;7.40;;;;;;;-141.02;100.00;39010.13;5074033;28;20276;-62
2023/10/07 05:34:28;;;;;;;9.13;8.93;;;;;;;-141.02;100.00;39025.47;5074159;28;20194;-63
2023/10/07 05:36:58;;;;;;;5.13;5.03;;;;;;;-141.02;100.00;39090.69;5074060;28;20190;-65
2023/10/07 05:39:26;;;;;;;4.00;3.90;;;;;;;-141.02;100.00;39219.16;5073472;28;20265;-64
2023/10/07 05:41:54;;;;;;;4.33;4.23;;;;;;;-141.02;100.00;39242.16;5073876;28;20623;-58
2023/10/07 05:44:21;;;;;;;7.30;7.10;;;;;;;-141.02;100.00;39247.91;5073910;28;20226;-64
2023/10/07 05:46:48;;;;;;;8.20;8.00;;;;;;;-141.02;100.00;39238.34;5073775;28;20737;-58
2023/10/07 05:49:18;;;;;;;8.30;8.10;;;;;;;-141.02;100.00;39221.06;5073450;28;20248;-62
2023/10/07 05:51:46;;;;;;;8.40;8.20;;;;;;;-141.02;100.00;39240.25;5073837;28;20195;-63
2023/10/07 05:54:18;;;;;;;8.70;8.50;;;;;;;-141.02;100.00;39282.44;5073592;28;20194;-59
2023/10/07 05:56:48;;;;;;;9.50;9.20;;;;;;;-141.02;100.00;39286.28;5073496;28;20191;-63
2023/10/07 05:59:15;;;;;;;10.33;10.03;;;;;;;-141.02;100.00;39324.63;5073302;28;20190;-62
2023/10/07 06:01:42;;;;;;;11.07;10.77;;;;;;;-141.02;100.00;39401.34;5073540;28;20197;-61
2023/10/07 06:04:11;;;;;;;11.85;11.45;;;;;;;-141.02;100.00;39382.16;5073116;28;20241;-61
2023/10/07 06:06:42;;;;;;;12.27;11.88;;;;;;;-141.02;100.00;39470.38;5073056;28;20687;-60
2023/10/07 06:09:10;;;;;;;12.70;12.30;;;;;;;-141.02;100.00;39531.75;5073285;28;20221;-61
2023/10/07 06:11:42;;;;;;;12.68;12.27;;;;;;;-141.02;100.00;39556.69;5072992;28;20183;-60
2023/10/07 06:14:14;;;;;;;13.10;12.70;;;;;;;-141.02;100.00;39537.50;5073060;28;20198;-59
2023/10/07 06:16:42;;;;;;;13.57;13.18;;;;;;;-141.02;100.00;39589.28;5072868;28;20226;-62
2023/10/07 06:19:11;;;;;;;12.82;12.43;;;;;;;-141.02;100.00;39593.13;5072932;28;20194;-62
2023/10/07 06:21:50;;;;;;;13.20;12.80;;;;;;;-141.02;100.00;39573.94;5072879;28;20194;-64
2023/10/07 06:24:20;;;;;;;12.73;12.32;;;;;;;-141.02;100.00;39619.97;5073019;28;20682;-61
2023/10/07 06:26:49;;;;;;;12.50;12.10;;;;;;;-141.02;100.00;39658.34;5072698;28;20285;-60
2023/10/07 06:29:19;;;;;;;12.90;12.50;;;;;;;-141.02;100.00;39650.66;5073596;28;20205;-63
2023/10/07 06:31:54;;;;;;;12.32;11.93;;;;;;;-141.02;100.00;39664.09;5072873;28;20190;-62
2023/10/07 06:34:26;;;;;;;13.25;12.85;;;;;;;-141.02;100.00;39700.53;5072671;28;20276;-62
2023/10/07 06:36:56;;;;;;;12.70;12.30;;;;;;;-141.02;100.00;39725.47;5072731;28;20575;-59
2023/10/07 06:39:28;;;;;;;12.50;12.10;;;;;;;-141.02;100.00;39760.00;5072040;28;20230;-62
2023/10/07 06:41:56;;;;;;;12.77;12.38;;;;;;;-141.02;100.00;39742.72;5072416;28;20305;-60
2023/10/07 06:44:24;;;;;;;12.48;12.07;;;;;;;-141.02;100.00;39725.47;5072455;28;20197;-63
2023/10/07 06:46:55;;;;;;;13.07;12.68;;;;;;;-141.02;100.00;39735.06;5072667;28;20726;-60
2023/10/07 06:49:23;;;;;;;12.48;12.07;;;;;;;-141.02;100.00;39742.72;5072361;28;20248;-61
2023/10/07 06:51:53;;;;;;;12.85;12.45;;;;;;;-141.02;100.00;39756.16;5072337;28;20642;-61
2023/10/07 06:54:23;;;;;;;12.60;12.20;;;;;;;-141.02;100.00;39756.16;5072207;28;20652;-62
2023/10/07 06:56:50;;;;;;;12.43;12.02;;;;;;;-141.02;100.00;39796.44;5072499;28;20649;-64
2023/10/07 06:59:20;;;;;;;12.23;11.82;;;;;;;-141.02;100.00;39783.00;5072160;28;20290;-63
2023/10/07 07:01:53;;;;;;;13.15;12.75;;;;;;;-141.02;100.00;39796.44;5072206;28;20689;-64
2023/10/07 07:04:22;;;;;;;13.32;12.93;;;;;;;-141.02;100.00;39838.63;5072181;28;20191;-63
2023/10/07 07:07:05;;;;;;;13.40;13.00;;;;;;;-141.02;100.00;39838.63;5072440;28;20197;-64
2023/10/07 07:09:58;;;;;;;13.43;13.02;;;;;;;-141.02;100.00;39857.81;5072166;28;20189;-64
2023/10/07 07:12:26;;;;;;;13.77;13.27;;;;;;;-141.02;100.00;39877.00;5072303;28;20214;-65
2023/10/07 07:15:04;;;;;;;14.40;13.90;;;;;;;-141.02;100.00;39926.84;5072342;28;20202;-64
2023/10/07 07:17:35;;;;;;;15.38;14.77;;;;;;;-141.02;100.00;39911.50;5072300;28;20229;-65
2023/10/07 07:20:32;;;;;;;15.40;14.80;;;;;;;-141.02;100.00;39955.63;5071996;28;20186;-64
2023/10/07 07:23:03;;;;;;;15.70;15.10;;;;;;;-141.02;100.00;40064.97;5072408;28;20202;-64
2023/10/07 07:25:36;;;;;;;16.02;15.32;;;;;;;-141.02;100.00;40139.78;5071922;28;20193;-64
2023/10/07 07:28:05;;;;;;;16.63;15.93;;;;;;;-141.02;100.00;40249.13;5072003;28;20190;-64
2023/10/07 07:30:32;;;;;;;17.17;16.40;;;;;;;-141.02;100.00;40306.66;5071867;28;20572;-64
2023/10/07 07:33:06;;;;;;;16.35;15.65;;;;;;;-141.02;100.00;40368.03;5074481;28;20317;-63
2023/10/07 07:35:42;;;;;;;16.40;15.70;;;;;;;-141.02;100.00;40475.47;5076301;28;20189;-63
2023/10/07 07:38:26;;;;;;;16.60;15.90;;;;;;;-141.02;98.04;40544.53;5076375;28;20277;-65
2023/10/07 07:41:05;;;;;;;17.20;16.40;;;;;;;-141.02;93.01;40609.75;5075558;28;20278;-65
2023/10/07 07:43:33;;;;;;;17.23;16.42;;;;;;;-141.02;90.67;40655.81;5076599;28;20190;-63
2023/10/07 07:46:18;;;;;;;17.17;16.38;;;;;;;-141.02;89.10;40722.97;5075821;28;20194;-63
2023/10/07 07:48:45;;;;;;;17.63;16.83;;;;;;;-141.02;88.31;40778.59;5075777;28;20197;-65
2023/10/07 07:51:17;;;;;;;17.50;16.70;;;;;;;-141.02;85.67;40820.81;5075991;28;20194;-64
2023/10/07 07:53:44;;;;;;;18.00;17.20;;;;;;;-141.02;84.65;40884.13;5075926;28;20604;-63
2023/10/07 07:56:13;;;;;;;18.10;17.25;;;;;;;-141.02;85.04;40928.25;5075584;28;20191;-64
2023/10/07 07:58:40;;;;;;;17.42;16.63;;;;;;;-141.02;85.14;40924.41;5075869;28;20194;-65
2023/10/07 08:01:18;;;;;;;17.38;16.58;;;;;;;-141.02;81.73;40943.59;5075795;28;20299;-63
2023/10/07 08:03:45;;;;;;;17.77;16.88;;;;;;;-141.02;78.48;41024.19;5075535;28;20187;-64
2023/10/07 08:06:19;;;;;;;17.85;16.95;;;;;;;-141.02;76.46;41039.53;5075578;28;20576;-61
2023/10/07 08:08:49;;;;;;;17.85;16.95;;;;;;;-141.02;76.02;41074.06;5075484;28;20248;-65
2023/10/07 08:11:19;;;;;;;17.85;16.95;;;;;;;-141.02;74.51;41083.66;5075585;28;20197;-66
2023/10/07 08:13:48;;;;;;;18.10;17.20;;;;;;;-141.02;75.07;41170.00;5075144;28;20284;-62
2023/10/07 08:16:18;;;;;;;17.75;16.85;;;;;;;-141.02;73.42;41179.59;5075489;28;20291;-64
2023/10/07 08:18:46;;;;;;;17.88;16.98;;;;;;;-141.02;73.99;41212.22;5075223;28;20664;-65
2023/10/07 08:21:15;;;;;;;18.15;17.25;;;;;;;-141.02;71.75;41227.56;5075476;28;20195;-65
2023/10/07 08:23:44;;;;;;;18.35;17.45;;;;;;;-141.02;71.20;41254.44;5075391;28;20247;-64
2023/10/07 08:26:12;;;;;;;17.90;17.10;;;;;;;-141.02;70.10;41265.94;5075345;28;20200;-64
2023/10/07 08:28:45;;;;;;;18.20;17.30;;;;;;;-141.02;70.16;41327.34;5074904;28;20234;-65
2023/10/07 08:31:19;;;;;;;18.45;17.55;;;;;;;-141.02;68.59;41338.88;5074921;28;20647;-66
2023/10/07 08:33:53;;;;;;;18.52;17.63;;;;;;;-141.02;69.46;41373.41;5074865;28;20707;-65
2023/10/07 08:36:28;;;;;;;18.67;17.77;;;;;;;-141.02;67.70;41365.72;5074946;28;20193;-65
2023/10/07 08:38:58;;;;;;;18.40;17.50;;;;;;;-141.02;65.52;41434.81;5074672;28;20197;-65
2023/10/07 08:41:31;;;;;;;18.60;17.70;;;;;;;-141.02;65.26;41471.28;5075124;28;20191;-66
2023/10/07 08:44:13;;;;;;;18.48;17.58;;;;;;;-141.02;65.10;41523.09;5074831;28;20191;-64
2023/10/07 08:46:40;;;;;;;18.42;17.52;;;;;;;-141.02;64.70;41542.28;5074651;28;20645;-65
2023/10/07 08:49:13;;;;;;;18.45;17.55;;;;;;;-141.02;64.27;41548.03;5074902;28;20194;-66
2023/10/07 08:51:42;;;;;;;18.55;17.65;;;;;;;-141.02;63.20;41603.69;5074927;28;20194;-65
2023/10/07 08:54:17;;;;;;;18.30;17.40;;;;;;;-141.02;62.92;41619.03;5074489;28;20327;-65
2023/10/07 08:56:54;;;;;;;18.02;17.15;;;;;;;-141.02;62.71;41649.75;5074500;28;20564;-65
2023/10/07 08:59:24;;;;;;;18.70;17.80;;;;;;;-141.02;62.74;41711.16;5074713;28;20553;-63
2023/10/07 09:01:57;;;;;;;18.27;17.38;;;;;;;-141.02;62.14;41713.06;5074710;28;20232;-64
2023/10/07 09:04:25;;;;;;;18.15;17.25;;;;;;;-141.02;62.86;41745.69;5074801;28;20190;-66
2023/10/07 09:06:52;;;;;;;18.13;17.23;;;;;;;-141.02;62.67;41772.56;5074324;28;20201;-65
2023/10/07 09:09:38;;;;;;;17.73;16.92;;;;;;;-141.02;62.45;41764.88;5074518;28;20201;-65
2023/10/07 09:12:14;;;;;;;17.98;17.08;;;;;;;-141.02;61.52;41810.94;5074432;28;20538;-66
2023/10/07 09:14:47;;;;;;;17.90;17.00;;;;;;;-141.02;61.59;41814.78;5074403;28;20218;-64
2023/10/07 09:17:15;;;;;;;17.83;17.00;;;;;;;-141.02;61.59;41855.09;5074232;28;20197;-65
2023/10/07 09:19:47;;;;;;;17.98;17.08;;;;;;;-141.02;61.17;41874.28;5074419;28;20191;-64
2023/10/07 09:22:21;;;;;;;18.27;17.38;;;;;;;-141.02;57.98;41976.00;5074429;28;20186;-64
2023/10/07 09:24:49;;;;;;;17.98;17.08;;;;;;;-141.02;58.99;41999.03;5074331;28;20210;-64
2023/10/07 09:27:17;;;;;;;17.70;16.80;;;;;;;-141.02;59.34;42022.06;5074284;28;20201;-65
2023/10/07 09:29:51;;;;;;;17.88;16.98;;;;;;;-141.02;57.98;42081.56;5074223;28;20275;-66
2023/10/07 09:32:22;;;;;;;17.60;16.70;;;;;;;-141.02;58.80;42144.91;5074308;28;20311;-66
2023/10/07 09:34:49;;;;;;;17.85;16.95;;;;;;;-141.02;58.36;42131.47;5073952;28;20248;-58
2023/10/07 09:37:21;;;;;;;17.63;16.73;;;;;;;-141.02;59.34;42252.38;5074053;28;20191;-63
2023/10/07 09:40:03;;;;;;;17.30;16.50;;;;;;;-141.02;58.08;42225.50;5073332;28;20238;-63
2023/10/07 09:42:36;;;;;;;17.25;16.45;;;;;;;-141.02;57.24;42190.97;5073682;28;20186;-61
2023/10/07 09:45:16;;;;;;;17.60;16.70;;;;;;;-141.02;55.93;42152.56;5074507;28;20240;-62
2023/10/07 09:47:44;;;;;;;17.63;16.73;;;;;;;-141.02;55.83;42238.94;5073494;28;20572;-61
2023/10/07 09:50:19;;;;;;;17.48;16.58;;;;;;;-141.02;56.13;42363.72;5073441;28;20607;-61
2023/10/07 09:52:52;;;;;;;17.08;16.27;;;;;;;-141.02;55.45;42313.81;5073855;28;20217;-64
2023/10/07 09:55:57;;;;;;;17.00;16.20;;;;;;;-141.02;56.39;42363.72;5072510;28;20244;-63
2023/10/07 09:58:41;;;;;;;17.00;16.20;;;;;;;-141.02;57.25;42327.25;5073655;28;20186;-64
2023/10/07 10:01:34;;;;;;;16.95;16.15;;;;;;;-141.02;57.50;42359.88;5073909;28;20191;-65
2023/10/07 10:04:21;;;;;;;16.90;16.10;;;;;;;-141.02;56.45;42346.44;5073196;28;20194;-62
2023/10/07 10:07:00;;;;;;;16.88;16.08;;;;;;;-141.02;55.48;42384.81;5073740;28;20182;-63
2023/10/07 10:09:42;;;;;;;16.90;16.10;;;;;;;-141.02;56.36;42365.63;5073108;28;20183;-62
2023/10/07 10:12:27;;;;;;;16.95;16.15;;;;;;;-141.02;55.80;42325.31;5073356;28;20195;-65
2023/10/07 10:15:50;;;;;;;16.85;16.05;;;;;;;-141.02;54.53;42302.28;5073184;28;20225;-61
2023/10/07 10:18:02;;;;;;;16.63;15.88;;;;;;;-141.02;55.06;42340.69;5072927;28;20202;-64
2023/10/07 10:20:42;;;;;;;16.88;16.08;;;;;;;-141.02;55.22;42309.97;5072940;28;20187;-65
2023/10/07 10:23:18;;;;;;;16.88;16.08;;;;;;;-141.02;55.15;42348.34;5072910;28;20663;-60
2023/10/07 10:25:48;;;;;;;16.83;16.02;;;;;;;-141.02;54.22;42267.75;5073094;28;20232;-65
2023/10/07 10:28:21;;;;;;;16.90;16.10;;;;;;;-141.02;53.85;42288.84;5073058;28;20256;-66
2023/10/07 10:30:50;;;;;;;17.00;16.20;;;;;;;-141.02;53.69;42309.97;5072626;28;20222;-65
2023/10/07 10:33:23;;;;;;;16.63;15.93;;;;;;;-141.02;54.67;42425.13;5073227;28;20219;-66
2023/10/07 10:35:52;;;;;;;16.58;15.88;;;;;;;-141.02;54.90;42413.63;5072586;28;20191;-66
2023/10/07 10:38:19;;;;;;;16.60;15.90;;;;;;;-141.02;53.60;42417.47;5072575;28;20722;-65
2023/10/07 10:40:46;;;;;;;16.90;16.10;;;;;;;-141.02;54.77;42450.09;5072425;28;20226;-68
2023/10/07 10:43:23;;;;;;;16.90;16.10;;;;;;;-141.02;54.66;42430.91;5072777;28;20260;-62
2023/10/07 10:46:01;;;;;;;16.67;15.98;;;;;;;-141.02;54.33;42513.44;5072420;28;20657;-64
2023/10/07 10:48:31;;;;;;;16.42;15.73;;;;;;;-141.02;53.60;42546.06;5072471;28;20233;-65
2023/10/07 10:50:58;;;;;;;18.30;17.40;;;;;;;-141.02;53.81;42555.66;5072526;28;20286;-63
2023/10/07 10:53:25;;;;;;;16.75;15.95;;;;;;;-141.02;53.49;42463.53;5072247;28;20281;-66
2023/10/07 10:55:53;;;;;;;16.40;15.70;;;;;;;-141.02;53.23;42559.50;5072528;28;20339;-67
2023/10/07 10:58:22;;;;;;;16.60;15.90;;;;;;;-141.02;53.25;42628.63;5072306;28;20248;-67
2023/10/07 11:00:51;;;;;;;16.60;15.90;;;;;;;-141.02;53.05;42619.00;5072305;28;20210;-66
2023/10/07 11:03:20;;;;;;;16.67;15.88;;;;;;;-141.02;54.65;42617.09;5072504;28;20194;-65
2023/10/07 11:05:49;;;;;;;16.73;15.93;;;;;;;-141.02;53.55;42655.47;5072336;28;20282;-66
2023/10/07 11:08:22;;;;;;;16.73;15.93;;;;;;;-141.02;53.14;42624.78;5072094;28;20573;-66
2023/10/07 11:10:52;;;;;;;16.35;15.65;;;;;;;-141.02;52.90;42686.19;5072495;28;20209;-64
2023/10/07 11:13:20;;;;;;;16.77;15.98;;;;;;;-141.02;53.25;42659.31;5073069;28;20202;-67
2023/10/07 11:16:09;;;;;;;16.52;15.82;;;;;;;-141.02;52.79;42690.03;5072348;28;20226;-66
2023/10/07 11:18:38;;;;;;;16.80;16.00;;;;;;;-141.02;51.99;42619.00;5072124;28;20194;-66
2023/10/07 11:21:11;;;;;;;16.65;15.95;;;;;;;-141.02;52.03;42588.31;5072319;28;20201;-65
2023/10/07 11:23:45;;;;;;;16.75;16.05;;;;;;;-141.02;50.64;42663.16;5072387;28;20190;-68
2023/10/07 11:26:13;;;;;;;16.65;15.95;;;;;;;-141.02;52.24;42751.47;5072195;28;20236;-67
2023/10/07 11:28:43;;;;;;;16.65;15.95;;;;;;;-141.02;52.09;42832.09;5071418;28;20632;-66
2023/10/07 11:31:10;;;;;;;16.67;15.98;;;;;;;-141.02;52.93;42918.50;5071696;28;20285;-65
2023/10/07 11:33:37;;;;;;;16.70;16.00;;;;;;;-141.02;52.71;42818.66;5071771;28;20719;-65
2023/10/07 11:36:07;;;;;;;16.48;15.77;;;;;;;-141.02;52.79;42870.50;5071828;28;20229;-67
2023/10/07 11:38:35;;;;;;;16.67;15.98;;;;;;;-141.02;53.51;42876.25;5072092;28;20278;-66
2023/10/07 11:58:08;;;;;;;16.80;16.00;;;;;;;-141.02;52.56;42893.53;5110389;27;20548;-61